Time;durP1;ratioP1;P1;durP2;ratioP2;P2;SDS_P1;SDS_P2;PMS_P1;PMS_P2;Temp;Humidity;BMP_temperature;BMP_pressure;BME280_temperature;BME280_humidity;BME280_pressure;Samples;Min_cycle;Max_cycle;Signal;HPM_P1;HPM_P2
2022/08/15 06:16:38;;;;;;;;;18.50;17.25;;;;;21.99;62.23;100304.06;2357997;28;73895;-83
2022/08/15 06:17:54;;;;;;;;;18.50;18.00;;;;;22.01;62.25;100309.28;2374913;28;45520;-82
2022/08/15 06:19:15;;;;;;;;;26.25;21.50;;;;;22.06;61.99;100307.03;2371947;28;46520;-82
2022/08/15 06:20:47;;;;;;;;;17.25;16.00;;;;;22.08;61.97;100306.91;2374098;28;45263;-80
2022/08/15 06:22:07;;;;;;;;;24.50;20.25;;;;;22.12;62.35;100303.84;2375642;28;45576;-82
2022/08/15 06:23:27;;;;;;;;;22.50;19.50;;;;;22.14;62.43;100301.00;2374793;28;45476;-82
2022/08/15 06:24:59;;;;;;;;;23.50;18.25;;;;;22.15;62.54;100300.88;2374918;28;45612;-84
2022/08/15 06:26:11;;;;;;;;;23.75;20.75;;;;;22.18;62.43;100298.88;2371195;28;45443;-82
2022/08/15 06:27:54;;;;;;;;;23.00;21.00;;;;;22.16;62.25;100301.72;2357580;29;46506;-82
2022/08/15 06:29:17;;;;;;;;;25.75;20.50;;;;;22.18;62.36;100297.06;2364048;29;44821;-82
2022/08/15 06:31:01;;;;;;;;;23.00;19.00;;;;;22.15;62.33;100292.84;2372233;28;46382;-81
2022/08/15 06:32:19;;;;;;;;;21.25;20.00;;;;;22.14;62.72;100290.31;2372884;28;45459;-80
2022/08/15 06:33:40;;;;;;;;;14.50;13.50;;;;;22.16;62.84;100293.69;2373907;28;48504;-80
2022/08/15 06:35:02;;;;;;;;;19.75;17.25;;;;;22.17;62.23;100289.19;2374304;28;45460;-81
2022/08/15 06:36:23;;;;;;;;;21.25;18.75;;;;;22.21;62.42;100294.13;2364567;29;46445;-80
2022/08/15 06:37:52;;;;;;;;;22.75;21.00;;;;;22.22;62.70;100301.19;2367932;28;45195;-80
2022/08/15 06:39:10;;;;;;;;;16.50;15.25;;;;;22.24;62.15;100293.84;2373573;28;45320;-82
2022/08/15 06:40:50;;;;;;;;;24.00;23.25;;;;;22.29;62.90;100305.97;2374315;28;44716;-82
2022/08/15 06:42:06;;;;;;;;;19.50;17.50;;;;;22.32;62.30;100303.03;2361055;29;47544;-84
2022/08/15 06:43:17;;;;;;;;;18.00;17.50;;;;;22.35;62.62;100305.41;2368542;28;44760;-84
2022/08/15 06:44:28;;;;;;;;;20.25;19.00;;;;;22.35;62.53;100300.88;2374850;28;46341;-81
2022/08/15 06:45:43;;;;;;;;;25.50;21.50;;;;;22.35;62.22;100305.41;2371050;28;45515;-82
2022/08/15 06:47:03;;;;;;;;;17.00;14.75;;;;;22.34;62.58;100298.38;2374916;28;46415;-81
2022/08/15 06:48:19;;;;;;;;;19.75;18.25;;;;;22.34;62.28;100309.06;2363339;29;44785;-82
2022/08/15 06:49:34;;;;;;;;;20.00;19.25;;;;;22.33;62.59;100304.69;2368546;28;46635;-81
2022/08/15 06:50:56;;;;;;;;;14.00;12.00;;;;;22.30;61.99;100305.00;2374465;28;45414;-81
2022/08/15 06:52:07;;;;;;;;;22.75;19.75;;;;;22.34;62.06;100304.56;2374780;28;45375;-82
2022/08/15 06:53:26;;;;;;;;;14.50;14.50;;;;;22.34;61.33;100301.91;2374915;28;45455;-82
2022/08/15 06:54:40;;;;;;;;;15.00;15.00;;;;;22.36;60.86;100296.38;2363425;29;48138;-81
2022/08/15 06:55:56;;;;;;;;;18.25;16.00;;;;;22.41;61.74;100302.19;2363989;29;45434;-82
2022/08/15 06:57:18;;;;;;;;;13.50;13.50;;;;;22.44;61.48;100304.59;2367975;28;46599;-81
2022/08/15 06:59:18;;;;;;;;;22.50;19.50;;;;;22.48;60.88;100297.94;2374848;28;44849;-83
2022/08/15 07:00:40;;;;;;;;;17.25;15.00;;;;;22.56;60.79;100307.97;2340802;28;47742;-81
2022/08/15 07:02:16;;;;;;;;;17.50;16.75;;;;;22.62;60.49;100297.69;2374383;28;45518;-81
2022/08/15 07:03:49;;;;;;;;;21.50;19.50;;;;;22.68;60.72;100297.97;2374772;28;45352;-81
2022/08/15 07:05:25;;;;;;;;;17.50;17.00;;;;;22.75;60.82;100308.13;2372972;28;45298;-81
2022/08/15 07:06:54;;;;;;;;;19.75;19.50;;;;;22.80;60.80;100305.88;2373574;28;45269;-81
2022/08/15 07:08:45;;;;;;;;;18.50;16.75;;;;;22.84;60.70;100304.59;2374359;28;45200;-82
2022/08/15 07:10:10;;;;;;;;;16.00;16.00;;;;;22.87;59.68;100309.66;2365322;29;47820;-82
2022/08/15 07:11:32;;;;;;;;;20.00;19.25;;;;;22.92;60.47;100301.19;2370478;28;45414;-81
2022/08/15 07:12:54;;;;;;;;;21.25;20.00;;;;;22.94;61.06;100296.53;2365174;29;46143;-82
2022/08/15 07:14:07;;;;;;;;;23.25;19.00;;;;;22.97;60.35;100298.09;2369686;28;45284;-82
2022/08/15 07:15:29;;;;;;;;;15.00;13.50;;;;;22.97;59.69;100292.72;2375157;28;45992;-81
2022/08/15 07:16:39;;;;;;;;;18.00;17.75;;;;;22.99;60.64;100298.81;2374349;28;45600;-82
2022/08/15 07:17:57;;;;;;;;;18.75;16.00;;;;;22.98;60.11;100289.94;2375026;28;46348;-83
2022/08/15 07:19:10;;;;;;;;;18.75;17.25;;;;;23.00;60.71;100295.13;2373356;28;45185;-83
2022/08/15 07:20:20;;;;;;;;;15.00;13.25;;;;;23.01;60.06;100284.28;2371699;28;45592;-83
2022/08/15 07:21:31;;;;;;;;;14.50;12.50;;;;;23.07;59.35;100298.91;2374455;28;45513;-83
2022/08/15 07:22:41;;;;;;;;;16.25;15.50;;;;;23.11;60.00;100286.09;2373801;28;46447;-83
2022/08/15 07:24:15;;;;;;;;;22.25;19.50;;;;;23.18;59.87;100294.41;2364448;29;45459;-83
2022/08/15 07:25:29;;;;;;;;;16.00;16.00;;;;;23.18;59.22;100295.25;2362548;29;48239;-83
2022/08/15 07:27:05;;;;;;;;;16.00;15.50;;;;;23.23;59.78;100297.50;2367448;28;45469;-84
2022/08/15 07:28:19;;;;;;;;;15.25;14.25;;;;;23.27;59.63;100293.50;2364355;29;47354;-83
2022/08/15 07:29:38;;;;;;;;;21.75;15.50;;;;;23.27;60.23;100290.84;2357091;29;45461;-84
2022/08/15 07:30:59;;;;;;;;;18.25;15.50;;;;;23.30;60.22;100284.34;2367562;28;46355;-83
2022/08/15 07:32:24;;;;;;;;;22.00;17.75;;;;;23.34;59.66;100289.25;2374837;28;44649;-83
2022/08/15 07:33:40;;;;;;;;;15.50;12.50;;;;;23.35;59.16;100293.66;2360529;29;47276;-83
2022/08/15 07:35:03;;;;;;;;;18.25;16.50;;;;;23.36;60.05;100289.13;2358608;29;45304;-83
2022/08/15 07:36:19;;;;;;;;;18.50;16.00;;;;;23.40;59.89;100295.03;2364582;28;47330;-84
2022/08/15 07:37:35;;;;;;;;;19.75;15.25;;;;;23.42;59.31;100295.72;2371796;28;45522;-83
2022/08/15 07:38:47;;;;;;;;;17.00;14.00;;;;;23.45;58.84;100290.06;2374610;28;46344;-84
2022/08/15 07:40:03;;;;;;;;;21.00;18.50;;;;;23.49;59.20;100295.03;2364113;29;45532;-83
2022/08/15 07:41:25;;;;;;;;;18.50;17.50;;;;;23.51;59.14;100294.06;2367429;28;46504;-83
2022/08/15 07:42:42;;;;;;;;;16.75;15.75;;;;;23.55;59.08;100296.28;2374245;28;45242;-83
2022/08/15 07:43:59;;;;;;;;;15.75;15.00;;;;;23.55;59.61;100287.38;2374594;28;45373;-82
2022/08/15 07:45:17;;;;;;;;;15.75;15.75;;;;;23.57;59.68;100286.25;2364790;29;45241;-83
2022/08/15 07:46:40;;;;;;;;;16.00;16.00;;;;;23.58;58.67;100292.47;2367005;28;46481;-83
2022/08/15 07:48:11;;;;;;;;;15.50;14.00;;;;;23.56;58.93;100291.75;2374223;28;45369;-82
2022/08/15 07:49:28;;;;;;;;;19.25;16.50;;;;;23.56;59.17;100292.59;2375059;28;45291;-83
2022/08/15 07:50:42;;;;;;;;;17.25;17.25;;;;;23.59;58.73;100292.31;2364952;29;45381;-83
2022/08/15 07:51:58;;;;;;;;;16.25;12.25;;;;;23.63;58.51;100298.22;2368126;28;46197;-83
2022/08/15 07:53:20;;;;;;;;;17.50;14.75;;;;;23.62;59.32;100291.16;2365179;29;45440;-82
2022/08/15 07:54:36;;;;;;;;;12.75;12.75;;;;;23.65;58.70;100296.25;2354638;29;47331;-82
2022/08/15 07:56:12;;;;;;;;;15.50;12.75;;;;;23.67;58.30;100307.66;2359086;29;45266;-82
2022/08/15 07:57:35;;;;;;;;;10.75;10.75;;;;;23.68;58.47;100295.09;2360036;29;46688;-83
2022/08/15 07:58:48;;;;;;;;;14.00;12.25;;;;;23.68;58.06;100287.06;2357532;29;45312;-82
2022/08/15 08:00:16;;;;;;;;;16.50;16.25;;;;;23.73;58.23;100291.97;2365705;28;45601;-82
2022/08/15 08:01:30;;;;;;;;;16.25;15.25;;;;;23.75;58.98;100290.00;2365069;29;45371;-82
2022/08/15 08:03:02;;;;;;;;;15.75;13.00;;;;;23.79;58.85;100292.22;2368314;28;45419;-82
2022/08/15 08:04:17;;;;;;;;;16.50;14.25;;;;;23.79;57.91;100294.91;2373960;28;45382;-82
2022/08/15 08:05:36;;;;;;;;;16.25;15.00;;;;;23.82;59.16;100286.56;2364135;29;47110;-82
2022/08/15 08:07:00;;;;;;;;;13.50;12.00;;;;;23.86;59.21;100288.94;2369029;28;45252;-82
2022/08/15 08:08:11;;;;;;;;;15.25;15.00;;;;;23.89;58.83;100292.16;2365796;29;46073;-82
2022/08/15 08:09:29;;;;;;;;;17.25;14.00;;;;;23.92;58.55;100297.25;2362922;29;45425;-82
2022/08/15 08:11:01;;;;;;;;;14.50;12.75;;;;;23.94;58.08;100294.41;2359222;29;47884;-82
2022/08/15 08:12:21;;;;;;;;;14.75;14.00;;;;;23.98;57.71;100295.78;2360830;29;44712;-82
2022/08/15 08:13:45;;;;;;;;;12.75;12.75;;;;;24.02;57.24;100305.25;2369099;28;46163;-81
2022/08/15 08:15:02;;;;;;;;;14.75;12.25;;;;;24.07;56.79;100301.25;2366034;29;45211;-82
2022/08/15 08:16:24;;;;;;;;;14.25;14.25;;;;;24.10;58.07;100292.91;2362471;29;46329;-81
2022/08/15 08:18:02;;;;;;;;;14.50;12.25;;;;;24.11;57.08;100291.88;2367935;28;45848;-82
2022/08/15 08:19:27;;;;;;;;;13.50;12.00;;;;;24.18;57.13;100301.03;2364185;29;46634;-82
2022/08/15 08:20:58;;;;;;;;;12.75;10.50;;;;;24.20;57.60;100304.41;2367534;28;44818;-82
2022/08/15 08:22:28;;;;;;;;;13.00;13.00;;;;;24.24;56.86;100300.44;2374743;28;46670;-82
2022/08/15 08:23:47;;;;;;;;;11.50;11.50;;;;;24.27;56.44;100294.78;2364277;29;45254;-82
2022/08/15 08:25:09;;;;;;;;;13.50;12.50;;;;;24.32;56.44;100301.56;2364987;29;46066;-83
2022/08/15 08:26:41;;;;;;;;;12.50;11.25;;;;;24.35;56.46;100293.16;2369593;28;45345;-82
2022/08/15 08:28:06;;;;;;;;;14.00;12.25;;;;;24.36;56.47;100295.72;2364512;29;46514;-81
2022/08/15 08:29:41;;;;;;;;;13.50;11.00;;;;;24.39;56.53;100292.72;2357517;29;45327;-83
2022/08/15 08:31:07;;;;;;;;;10.75;9.25;;;;;24.43;55.81;100292.41;2360181;29;47483;-82
2022/08/15 08:32:39;;;;;;;;;13.00;10.75;;;;;24.48;57.48;100296.34;2369418;28;45310;-82
2022/08/15 08:34:13;;;;;;;;;12.25;11.75;;;;;24.52;56.04;100294.16;2373750;28;45424;-82
2022/08/15 08:35:26;;;;;;;;;14.50;10.25;;;;;24.56;55.43;100294.72;2350893;29;44792;-82
2022/08/15 08:37:04;;;;;;;;;13.25;12.00;;;;;24.60;56.58;100299.63;2361825;28;45581;-82
2022/08/15 08:38:52;;;;;;;;;9.75;9.25;;;;;24.61;55.27;100301.31;2363177;29;44859;-82
2022/08/15 08:42:17;;;;;;;;;10.25;10.00;;;;;24.70;55.20;100288.78;2349372;29;45208;-82
2022/08/15 08:43:50;;;;;;;;;10.00;10.00;;;;;24.72;54.82;100296.69;2338262;29;47518;-82
2022/08/15 08:45:14;;;;;;;;;13.00;10.00;;;;;24.75;55.43;100290.16;2362845;28;44862;-82
2022/08/15 08:46:49;;;;;;;;;11.00;11.00;;;;;24.78;56.47;100300.59;2365550;29;46679;-82
2022/08/15 08:48:21;;;;;;;;;10.00;10.00;;;;;24.79;55.47;100296.94;2366927;28;44627;-82
2022/08/15 08:49:47;;;;;;;;;8.75;8.75;;;;;24.81;55.20;100297.63;2374536;28;46464;-80
2022/08/15 08:51:22;;;;;;;;;10.50;10.50;;;;;24.82;55.08;100292.06;2369669;28;45174;-82
2022/08/15 08:53:03;;;;;;;;;8.50;7.75;;;;;24.85;54.55;100293.59;2369559;28;46171;-81
2022/08/15 08:54:36;;;;;;;;;11.50;9.00;;;;;24.88;55.04;100298.69;2368547;28;45308;-81
2022/08/15 08:55:50;;;;;;;;;10.00;8.50;;;;;24.90;55.07;100307.41;2370932;28;45340;-77
2022/08/15 08:57:07;;;;;;;;;9.75;7.00;;;;;24.91;54.48;100298.38;2365552;29;45394;-80
2022/08/15 08:58:23;;;;;;;;;8.00;7.25;;;;;24.94;54.81;100300.72;2365841;28;46370;-80
2022/08/15 08:59:47;;;;;;;;;7.25;7.25;;;;;24.95;55.47;100304.25;2374362;28;45269;-80
2022/08/15 09:00:59;;;;;;;;;8.50;8.50;;;;;24.98;55.24;100301.28;2366740;28;45269;-80
2022/08/15 09:02:09;;;;;;;;;9.50;8.25;;;;;25.01;54.83;100302.84;2373700;28;44797;-80
2022/08/15 09:03:34;;;;;;;;;7.00;7.00;;;;;25.04;54.59;100299.81;2374572;28;46370;-80
2022/08/15 09:04:50;;;;;;;;;8.25;7.50;;;;;25.06;54.54;100300.53;2374921;28;45249;-80
2022/08/15 09:06:01;;;;;;;;;8.50;8.25;;;;;25.07;54.85;100299.50;2374450;28;45454;-80
2022/08/15 09:07:21;;;;;;;;;7.50;7.25;;;;;25.11;55.91;100300.91;2369911;28;44683;-80
2022/08/15 09:08:51;;;;;;;;;7.00;7.00;;;;;25.15;55.68;100302.25;2355492;29;47145;-80
2022/08/15 09:10:07;;;;;;;;;8.50;6.25;;;;;25.20;55.62;100300.94;2351838;29;45263;-80
2022/08/15 09:11:20;;;;;;;;;6.75;6.75;;;;;25.22;55.31;100302.47;2366519;28;45354;-80
2022/08/15 09:14:17;;;;;;;;;6.25;6.00;;;;;25.28;55.07;100306.38;2374476;28;45811;-80
2022/08/15 09:15:30;;;;;;;;;5.25;4.25;;;;;25.32;54.84;100305.03;2374534;28;45390;-80
2022/08/15 09:16:43;;;;;;;;;4.75;4.75;;;;;25.35;54.92;100307.41;2374443;28;45568;-80
2022/08/15 09:18:08;;;;;;;;;5.50;5.50;;;;;25.36;54.36;100303.72;2374835;28;45261;-81
2022/08/15 09:19:30;;;;;;;;;5.50;5.00;;;;;25.38;54.76;100304.41;2364680;29;46501;-80
2022/08/15 09:20:42;;;;;;;;;5.50;4.25;;;;;25.39;54.62;100308.78;2368680;28;44754;-80
2022/08/15 09:21:53;;;;;;;;;4.75;4.75;;;;;25.40;54.63;100307.78;2373570;28;46562;-80
2022/08/15 09:23:08;;;;;;;;;5.00;5.00;;;;;25.40;54.26;100307.78;2355694;29;45236;-80
2022/08/15 09:24:20;;;;;;;;;4.00;3.50;;;;;25.42;54.54;100302.25;2365716;28;45433;-80
2022/08/15 09:25:36;;;;;;;;;4.00;4.00;;;;;25.45;54.64;100311.84;2374707;28;44791;-80
2022/08/15 09:27:04;;;;;;;;;4.25;4.25;;;;;25.44;55.18;100302.91;2364181;29;45707;-80
2022/08/15 09:28:28;;;;;;;;;7.25;4.75;;;;;25.43;55.39;100303.94;2369813;28;45204;-80
2022/08/15 09:29:43;;;;;;;;;3.00;3.00;;;;;25.44;54.87;100299.38;2374700;28;45706;-80
2022/08/15 09:30:55;;;;;;;;;5.00;4.00;;;;;25.44;54.73;100302.06;2374128;28;44768;-80
2022/08/15 09:32:23;;;;;;;;;5.00;3.50;;;;;25.46;54.95;100305.47;2374551;28;45490;-80
2022/08/15 09:33:36;;;;;;;;;5.00;5.00;;;;;25.47;55.22;100305.28;2374348;28;45187;-80
2022/08/15 09:35:08;;;;;;;;;4.00;4.00;;;;;25.49;55.43;100303.28;2374602;28;45385;-80
2022/08/15 09:36:30;;;;;;;;;4.00;4.00;;;;;25.51;54.90;100305.81;2372830;28;44741;-80
2022/08/15 09:38:04;;;;;;;;;7.00;5.00;;;;;25.51;54.23;100297.72;2367143;28;45356;-81
2022/08/15 09:39:37;;;;;;;;;5.50;5.50;;;;;25.53;54.67;100306.50;2365412;29;45300;-80
2022/08/15 09:41:20;;;;;;;;;4.00;4.00;;;;;25.55;54.67;100304.50;2370675;28;45429;-80
2022/08/15 09:42:49;;;;;;;;;5.50;5.50;;;;;25.58;54.20;100312.22;2364495;29;45523;-80
2022/08/15 09:44:21;;;;;;;;;4.00;4.00;;;;;25.61;54.41;100313.75;2357433;29;46911;-80
2022/08/15 09:45:39;;;;;;;;;4.00;4.00;;;;;25.61;53.94;100314.59;2360493;29;45467;-80
2022/08/15 09:47:00;;;;;;;;;4.00;4.00;;;;;25.63;54.24;100309.09;2363938;29;45388;-80
2022/08/15 09:48:40;;;;;;;;;4.25;4.25;;;;;25.62;54.18;100313.63;2367027;28;45422;-81
2022/08/15 09:50:25;;;;;;;;;5.25;5.00;;;;;25.65;54.56;100317.84;2366831;29;45520;-81
2022/08/15 09:52:13;;;;;;;;;4.00;4.00;;;;;25.66;54.58;100318.66;2353734;29;45578;-81
2022/08/15 09:53:38;;;;;;;;;5.25;4.75;;;;;25.66;54.36;100318.66;2371171;28;46384;-81
2022/08/15 09:54:56;;;;;;;;;5.00;5.00;;;;;25.65;54.09;100319.66;2375712;28;44771;-81
2022/08/15 09:56:11;;;;;;;;;6.00;6.00;;;;;25.63;54.39;100319.84;2375136;28;46021;-81
2022/08/15 09:57:31;;;;;;;;;6.75;6.00;;;;;25.62;53.96;100321.69;2366294;29;45261;-81
2022/08/15 09:59:15;;;;;;;;;6.25;6.25;;;;;25.60;53.94;100317.47;2365616;29;45566;-81
2022/08/15 10:00:40;;;;;;;;;7.00;5.50;;;;;25.56;53.90;100311.56;2372561;28;45267;-81
2022/08/15 10:01:52;;;;;;;;;7.00;6.00;;;;;25.55;53.83;100322.47;2376038;28;46277;-81
2022/08/15 10:03:18;;;;;;;;;6.25;6.25;;;;;25.52;54.54;100323.66;2376081;28;44795;-82
2022/08/15 10:04:57;;;;;;;;;7.25;7.00;;;;;25.50;54.60;100323.81;2376165;28;46311;-81
2022/08/15 10:06:09;;;;;;;;;7.25;6.25;;;;;25.48;54.09;100317.72;2375588;28;45607;-81
2022/08/15 10:07:51;;;;;;;;;5.75;5.00;;;;;25.48;54.75;100316.91;2375617;28;45368;-81
2022/08/15 10:09:11;;;;;;;;;6.00;5.00;;;;;25.46;54.71;100321.59;2375974;28;45395;-77
2022/08/15 10:10:51;;;;;;;;;6.00;5.00;;;;;25.45;54.97;100319.91;2375507;28;47113;-82
2022/08/15 10:12:07;;;;;;;;;7.00;7.00;;;;;25.40;54.81;100320.38;2374155;28;45212;-82
2022/08/15 10:13:28;;;;;;;;;9.25;8.25;;;;;25.38;55.12;100315.19;2356737;29;47336;-82
2022/08/15 10:15:01;;;;;;;;;6.75;6.75;;;;;25.33;55.86;100316.66;2361189;29;45284;-82
2022/08/15 10:16:42;;;;;;;;;7.75;7.25;;;;;25.26;55.01;100316.44;2373740;28;45459;-81
2022/08/15 10:17:52;;;;;;;;;6.75;6.75;;;;;25.23;55.39;100308.69;2376004;28;45420;-81
2022/08/15 10:19:10;;;;;;;;;8.00;7.00;;;;;25.22;56.36;100318.59;2374490;28;46447;-80
2022/08/15 10:20:40;;;;;;;;;8.00;8.00;;;;;25.21;55.49;100318.75;2369879;28;45568;-80
2022/08/15 10:21:54;;;;;;;;;10.25;9.00;;;;;25.19;56.21;100313.53;2362694;29;48253;-80
2022/08/15 10:23:13;;;;;;;;;8.00;7.00;;;;;25.20;56.13;100311.69;2368272;28;45356;-80
2022/08/15 10:24:38;;;;;;;;;8.00;8.00;;;;;25.18;55.94;100317.22;2373625;28;45516;-80
2022/08/15 10:26:14;;;;;;;;;8.25;8.25;;;;;25.17;56.62;100316.38;2374740;28;44800;-80
2022/08/15 10:27:26;;;;;;;;;5.00;5.00;;;;;25.14;56.52;100311.31;2369501;28;45592;-80
2022/08/15 10:28:37;;;;;;;;;10.25;9.00;;;;;25.13;55.83;100312.34;2374373;28;45234;-80
2022/08/15 10:29:52;;;;;;;;;6.25;6.25;;;;;25.13;55.87;100312.34;2373039;28;46425;-80
2022/08/15 10:31:04;;;;;;;;;8.75;8.00;;;;;25.14;55.86;100314.00;2368662;28;44759;-81
2022/08/15 10:32:29;;;;;;;;;8.50;7.00;;;;;25.13;55.32;100311.47;2366518;29;45289;-80
2022/08/15 10:33:45;;;;;;;;;8.00;7.75;;;;;25.06;55.24;100311.28;2371992;28;45717;-81
2022/08/15 10:35:02;;;;;;;;;9.00;8.50;;;;;25.01;55.75;100305.53;2369853;28;45324;-80
2022/08/15 10:36:15;;;;;;;;;8.00;7.00;;;;;24.97;56.34;100306.78;2360777;29;45329;-80
2022/08/15 10:37:36;;;;;;;;;9.75;7.00;;;;;24.91;56.07;100306.44;2363419;28;45631;-81
2022/08/15 10:39:07;;;;;;;;;8.25;7.25;;;;;24.86;55.90;100307.91;2375630;28;45235;-80
2022/08/15 10:40:40;;;;;;;;;6.50;6.50;;;;;24.82;56.71;100301.97;2366533;28;45292;-80
2022/08/15 10:42:14;;;;;;;;;8.25;8.25;;;;;24.81;56.01;100311.91;2370114;28;45698;-80
2022/08/15 10:43:50;;;;;;;;;9.25;7.75;;;;;24.81;56.24;100314.59;2374382;28;46565;-80
2022/08/15 10:45:12;;;;;;;;;7.50;7.00;;;;;24.85;55.86;100317.78;2372527;28;44713;-81
2022/08/15 10:46:52;;;;;;;;;6.00;6.00;;;;;24.88;55.69;100311.25;2375414;28;45331;-80
2022/08/15 10:48:18;;;;;;;;;10.00;9.00;;;;;24.87;56.35;100315.78;2365516;29;45427;-80
2022/08/15 10:49:47;;;;;;;;;8.00;7.00;;;;;24.86;56.79;100310.59;2369850;28;45541;-80
2022/08/15 10:51:09;;;;;;;;;8.75;6.75;;;;;24.82;56.70;100307.34;2366545;28;45257;-80
2022/08/15 10:52:40;;;;;;;;;8.00;7.00;;;;;24.82;57.43;100307.34;2363000;29;47676;-80
2022/08/15 10:54:11;;;;;;;;;9.00;7.25;;;;;24.80;57.45;100312.88;2360687;29;45373;-80
2022/08/15 10:55:30;;;;;;;;;9.75;8.50;;;;;24.80;57.94;100310.19;2366725;28;46328;-80
2022/08/15 10:56:42;;;;;;;;;7.75;7.25;;;;;24.79;57.59;100310.38;2365350;29;45447;-80
2022/08/15 10:58:10;;;;;;;;;10.25;10.25;;;;;24.77;58.25;100304.31;2361964;28;45525;-80
2022/08/15 10:59:25;;;;;;;;;9.50;9.50;;;;;24.77;57.88;100301.63;2375335;28;44728;-80
2022/08/15 11:00:50;;;;;;;;;10.00;8.00;;;;;24.75;57.21;100311.66;2372576;28;47357;-80
2022/08/15 11:02:27;;;;;;;;;7.25;6.75;;;;;24.72;56.38;100297.53;2372312;28;45252;-80
2022/08/15 11:03:42;;;;;;;;;6.25;6.25;;;;;24.76;57.16;100302.59;2374959;28;45538;-80
2022/08/15 11:05:00;;;;;;;;;9.75;9.25;;;;;24.75;57.28;100300.91;2365400;29;44704;-80
2022/08/15 11:06:14;;;;;;;;;8.25;8.25;;;;;24.72;56.23;100300.22;2369182;28;46285;-80
2022/08/15 11:07:28;;;;;;;;;8.25;8.00;;;;;24.71;56.46;100306.63;2374262;28;45431;-81
2022/08/15 11:08:49;;;;;;;;;8.00;8.00;;;;;24.70;55.94;100304.91;2370730;28;46661;-80
2022/08/15 11:10:03;;;;;;;;;7.75;6.75;;;;;24.73;56.11;100309.13;2358574;29;45271;-80
2022/08/15 11:11:15;;;;;;;;;7.25;7.25;;;;;24.73;56.43;100309.13;2367904;28;45487;-80
2022/08/15 11:12:31;;;;;;;;;7.75;7.75;;;;;24.74;56.21;100305.47;2375234;28;44750;-80
2022/08/15 11:13:50;;;;;;;;;6.00;6.00;;;;;24.76;55.64;100299.91;2365126;29;47954;-80
2022/08/15 11:15:13;;;;;;;;;8.00;6.75;;;;;24.78;55.58;100304.16;2361375;28;45286;-80
2022/08/15 11:16:32;;;;;;;;;11.00;8.00;;;;;24.79;56.42;100299.63;2366638;28;46512;-80
2022/08/15 11:17:47;;;;;;;;;8.25;5.75;;;;;24.81;55.60;100301.16;2370375;28;45167;-80
2022/08/15 11:18:59;;;;;;;;;9.50;8.25;;;;;24.85;55.74;100301.66;2375304;28;45622;-80
2022/08/15 11:20:16;;;;;;;;;8.00;7.50;;;;;24.87;55.13;100306.88;2368459;28;45527;-80
2022/08/15 11:21:30;;;;;;;;;7.25;5.75;;;;;24.91;55.90;100305.59;2374042;28;46294;-81
2022/08/15 11:22:58;;;;;;;;;6.25;6.25;;;;;24.91;56.95;100306.44;2375414;28;45417;-81
2022/08/15 11:24:11;;;;;;;;;7.50;6.75;;;;;24.90;55.27;100312.81;2374967;28;45474;-81
2022/08/15 11:25:29;;;;;;;;;9.25;9.25;;;;;24.84;55.24;100310.75;2375241;28;44648;-81
2022/08/15 11:26:43;;;;;;;;;7.50;7.50;;;;;24.78;55.59;100308.66;2365214;29;46249;-81
2022/08/15 11:28:11;;;;;;;;;7.50;5.75;;;;;24.75;56.46;100307.13;2363392;29;45493;-81
2022/08/15 11:29:24;;;;;;;;;7.25;6.75;;;;;24.75;56.45;100311.66;2368029;28;46154;-80
2022/08/15 11:30:38;;;;;;;;;6.00;6.00;;;;;24.73;57.18;100309.97;2373850;28;45444;-81
2022/08/15 11:31:56;;;;;;;;;6.75;5.00;;;;;24.75;57.12;100315.19;2374650;28;46318;-80
2022/08/15 11:33:25;;;;;;;;;7.25;7.25;;;;;24.76;57.35;100307.97;2358440;29;45242;-80
2022/08/15 11:34:39;;;;;;;;;11.50;9.25;;;;;24.77;57.45;100315.06;2362877;28;46312;-80
2022/08/15 11:36:05;;;;;;;;;9.00;9.00;;;;;24.78;57.83;100311.34;2375233;28;44804;-81
2022/08/15 11:37:26;;;;;;;;;10.50;8.75;;;;;24.80;57.16;100309.34;2373516;28;46704;-81
2022/08/15 11:38:41;;;;;;;;;7.00;7.00;;;;;24.81;56.52;100311.91;2374318;28;45195;-81
2022/08/15 11:40:04;;;;;;;;;6.75;6.75;;;;;24.85;56.41;100309.72;2374629;28;45425;-80
2022/08/15 11:41:24;;;;;;;;;8.00;7.50;;;;;24.87;57.43;100314.94;2375361;28;45288;-81
2022/08/15 11:42:39;;;;;;;;;7.00;7.00;;;;;24.88;57.76;100314.81;2371170;28;45565;-81
2022/08/15 11:43:51;;;;;;;;;7.25;7.25;;;;;24.91;56.36;100319.88;2369672;28;45391;-81
2022/08/15 11:45:20;;;;;;;;;8.75;8.75;;;;;24.94;57.70;100316.03;2364620;29;47088;-80
2022/08/15 11:46:32;;;;;;;;;8.25;7.75;;;;;24.93;57.42;100320.56;2360393;29;45464;-81
2022/08/15 11:47:52;;;;;;;;;11.25;8.50;;;;;24.93;57.30;100315.19;2365722;28;45481;-80
2022/08/15 11:49:09;;;;;;;;;9.00;9.00;;;;;24.93;57.01;100317.03;2372578;28;45449;-81
2022/08/15 11:50:32;;;;;;;;;10.25;8.50;;;;;24.90;56.67;100314.63;2375058;28;45356;-81
2022/08/15 11:51:45;;;;;;;;;9.25;9.25;;;;;24.86;56.91;100316.81;2370531;28;44667;-81
2022/08/15 11:53:00;;;;;;;;;10.25;9.75;;;;;24.88;57.63;100316.63;2368924;28;45358;-81
2022/08/15 11:54:10;;;;;;;;;7.25;7.25;;;;;24.87;56.56;100315.78;2373362;28;45458;-81
2022/08/15 11:55:29;;;;;;;;;8.00;8.00;;;;;24.88;55.95;100317.50;2374362;28;45350;-81
2022/08/15 11:57:00;;;;;;;;;10.25;9.00;;;;;24.87;56.50;100317.63;2375156;28;45243;-81
2022/08/15 11:58:13;;;;;;;;;9.25;9.25;;;;;24.82;56.18;100324.31;2365956;29;46534;-81
2022/08/15 11:59:30;;;;;;;;;10.00;8.25;;;;;24.77;56.63;100325.81;2373187;28;44630;-81
2022/08/15 12:00:48;;;;;;;;;9.50;9.50;;;;;24.70;56.42;100321.03;2371471;28;46318;-81
2022/08/15 12:02:28;;;;;;;;;8.25;8.25;;;;;24.64;56.24;100326.19;2371635;28;45303;-81
2022/08/15 12:03:39;;;;;;;;;9.50;9.50;;;;;24.61;56.09;100328.19;2370904;28;45575;-81
2022/08/15 12:04:49;;;;;;;;;8.00;8.00;;;;;24.59;56.61;100327.50;2374066;28;45247;-81
2022/08/15 12:06:12;;;;;;;;;8.25;8.25;;;;;24.63;55.94;100322.66;2370774;28;45455;-81
2022/08/15 12:07:27;;;;;;;;;10.50;9.50;;;;;24.66;57.00;100324.19;2374038;28;45452;-81
2022/08/15 12:08:39;;;;;;;;;8.75;8.75;;;;;24.67;57.12;100323.19;2364365;29;46415;-81
2022/08/15 12:10:06;;;;;;;;;9.00;9.00;;;;;24.68;57.12;100330.25;2363316;28;45277;-81
2022/08/15 12:11:24;;;;;;;;;13.25;10.50;;;;;24.67;56.65;100321.34;2373925;28;47478;-81
2022/08/15 12:12:38;;;;;;;;;8.00;7.00;;;;;24.68;55.94;100322.19;2374494;28;45293;-81
2022/08/15 12:14:14;;;;;;;;;12.00;11.50;;;;;24.68;56.47;100320.34;2374809;28;45558;-81
2022/08/15 12:15:45;;;;;;;;;9.75;9.75;;;;;24.72;57.07;100329.78;2364345;29;45462;-81
2022/08/15 12:17:01;;;;;;;;;11.25;11.25;;;;;24.73;57.31;100328.78;2370392;28;45442;-81
2022/08/15 12:18:18;;;;;;;;;12.50;12.00;;;;;24.77;57.54;100323.13;2362215;29;44720;-81
2022/08/15 12:19:35;;;;;;;;;10.00;9.50;;;;;24.77;56.89;100328.50;2366809;28;46324;-81
2022/08/15 12:21:04;;;;;;;;;10.00;10.00;;;;;24.76;56.96;100324.94;2367182;28;45193;-81
2022/08/15 12:22:37;;;;;;;;;12.50;10.25;;;;;24.79;57.46;100323.81;2374078;28;45453;-81
2022/08/15 12:23:55;;;;;;;;;9.75;9.75;;;;;24.77;56.83;100325.81;2357598;29;45265;-81
2022/08/15 12:25:09;;;;;;;;;9.00;8.00;;;;;24.71;56.03;100316.50;2360552;29;47013;-81
2022/08/15 12:26:21;;;;;;;;;10.75;10.75;;;;;24.66;56.82;100322.34;2366712;28;45216;-81
2022/08/15 12:27:35;;;;;;;;;10.00;9.00;;;;;24.64;56.98;100318.13;2374522;28;46440;-81
2022/08/15 12:28:46;;;;;;;;;11.00;11.00;;;;;24.62;56.72;100320.94;2364639;29;45196;-81
2022/08/15 12:29:57;;;;;;;;;8.25;8.25;;;;;24.62;56.40;100320.94;2367147;28;46388;-81
2022/08/15 12:31:20;;;;;;;;;7.75;7.25;;;;;24.64;56.51;100320.81;2373933;28;45291;-81
2022/08/15 12:32:31;;;;;;;;;8.25;7.50;;;;;24.65;56.62;100314.44;2370859;28;46384;-81
2022/08/15 12:33:42;;;;;;;;;7.75;7.75;;;;;24.68;56.56;100312.28;2364861;29;44622;-81
2022/08/15 12:34:54;;;;;;;;;7.75;7.75;;;;;24.73;56.67;100314.50;2366140;28;45514;-81
2022/08/15 12:36:04;;;;;;;;;7.00;5.00;;;;;24.75;55.73;100311.66;2374468;28;45353;-81